Atmospheric History
04/26/2012 02:56  to  4/27/2012 02:56
Change End Date:
To complete the export process:
1) Select all of the data below
2) Copy the data to the clipboard
3) Open a word processor such as Notepad
4) Paste the data into the word processor
5) Save the file

Date/Time (MDT), AirTemp, RH, Dewpoint ,AvgWindSpeed, GustWindSpeed, WindDirection, PrecipType, PrecipIntensity, PrecipAccumulation, PrecipRate
04/27/2012 02:47, 26, 93 , 24 ,24, 31, NW, None, None , ,  
04/27/2012 02:37, 26, 92 , 25 ,24, 33, NW, None, None , ,  
04/27/2012 02:27, 27, 93 , 25 ,23, 34, NW, None, None , ,  
04/27/2012 02:17, 27, 93 , 26 ,25, 32, NW, None, None , ,  
04/27/2012 02:07, 28, 92 , 26 ,21, 29, NW, None, None , ,  
04/27/2012 02:03, 28, 93 , 27 ,21, 29, NW, None, None , ,  
04/27/2012 01:57, 29, 92 , 27 ,22, 30, NW, None, None , ,  
04/27/2012 01:47, 29, 93 , 27 ,24, 27, NW, None, None , ,  
04/27/2012 01:37, 30, 92 , 29 ,21, 26, NW, None, None , ,  
04/27/2012 01:27, 31, 92 , 29 ,20, 24, NW, None, None , ,  
04/27/2012 01:17, 32, 92 , 30 ,19, 23, NW, None, None , ,  
04/27/2012 01:07, 32, 92 , 30 ,19, 25, NW, None, None , ,  
04/27/2012 01:03, 32, 92 , 30 ,20, 22, NW, None, None , ,  
04/27/2012 00:57, 34, 92 , 32 ,14, 21, NW, None, None , ,  
04/27/2012 00:47, 34, 92 , 32 ,12, 16, W, None, None , ,  
04/27/2012 00:37, 34, 91 , 32 ,9, 12, W, None, None , ,  
04/27/2012 00:27, 35, 90 , 32 ,9, 10, W, None, None , ,  
04/27/2012 00:17, 35, 87 , 32 ,8, 9, W, None, None , ,  
04/27/2012 00:07, 35, 85 , 31 ,7, 9, NW, None, None , ,  
04/27/2012 00:03, 35, 85 , 31 ,7, 10, NW, None, None , ,  
04/26/2012 23:57, 35, 84 , 31 ,7, 12, NW, None, None , ,  
04/26/2012 23:47, 35, 85 , 31 ,9, 11, W, None, None , ,  
04/26/2012 23:36, 35, 85 , 31 ,7, 10, W, None, None , ,  
04/26/2012 23:26, 35, 85 , 31 ,7, 10, W, None, None , ,  
04/26/2012 23:16, 35, 82 , 31 ,9, 17, W, None, None , ,  
04/26/2012 23:06, 35, 84 , 31 ,13, 16, W, None, None , ,  
04/26/2012 23:04, 35, 84 , 31 ,11, 16, W, None, None , ,  
04/26/2012 22:56, 35, 81 , 30 ,12, 16, W, None, None , ,  
04/26/2012 22:46, 35, 83 , 31 ,14, 16, SW, None, None , ,  
04/26/2012 22:36, 35, 84 , 31 ,9, 14, W, None, None , ,  
04/26/2012 22:26, 36, 82 , 31 ,12, 16, W, None, None , ,  
04/26/2012 22:16, 36, 81 , 31 ,13, 19, W, None, None , ,  
04/26/2012 22:06, 36, 83 , 31 ,14, 20, SW, None, None , ,  
04/26/2012 22:03, 36, 84 , 32 ,17, 20, SW, None, None , ,  
04/26/2012 21:56, 36, 85 , 32 ,13, 21, W, None, None , ,  
04/26/2012 21:46, 36, 86 , 32 ,17, 21, W, None, None , ,  
04/26/2012 21:36, 36, 87 , 33 ,14, 19, W, None, None , ,  
04/26/2012 21:26, 36, 88 , 33 ,15, 19, W, None, None , ,  
04/26/2012 21:16, 36, 88 , 33 ,17, 21, W, None, None , ,  
04/26/2012 21:06, 36, 90 , 33 ,16, 19, W, None, None , ,  
04/26/2012 21:03, 36, 90 , 33 ,16, 19, W, None, None , ,  
04/26/2012 20:56, 35, 90 , 33 ,16, 24, W, None, None , ,  
04/26/2012 20:46, 35, 91 , 33 ,22, 28, W, None, None , ,  
04/26/2012 20:36, 35, 92 , 33 ,18, 24, W, None, None , ,  
04/26/2012 20:26, 35, 92 , 33 ,17, 23, W, None, None , ,  
04/26/2012 20:16, 35, 92 , 33 ,16, 22, W, None, None , ,  
04/26/2012 20:06, 35, 91 , 33 ,16, 18, W, None, None , ,  
04/26/2012 20:03, 35, 91 , 33 ,15, 17, W, None, None , ,  
04/26/2012 19:56, 37, 91 , 34 ,12, 16, W, None, None , ,  
04/26/2012 19:46, 37, 90 , 35 ,14, 16, W, None, None , ,  
04/26/2012 19:36, 38, 90 , 35 ,10, 18, NW, None, None , ,  
04/26/2012 19:26, 39, 89 , 36 ,15, 20, W, None, None , ,  
04/26/2012 19:15, 39, 88 , 36 ,17, 24, W, None, None , ,  
04/26/2012 19:05, 39, 86 , 35 ,17, 24, W, None, None , ,  
04/26/2012 19:03, 39, 86 , 35 ,19, 23, NW, None, None , ,  
04/26/2012 18:55, 40, 85 , 36 ,10, 16, NW, None, None , ,  
04/26/2012 18:45, 40, 85 , 37 ,11, 14, NW, None, None , ,  
04/26/2012 18:35, 41, 85 , 37 ,12, 16, NW, None, None , ,  
04/26/2012 18:25, 41, 86 , 37 ,11, 16, NW, None, None , ,  
04/26/2012 18:15, 41, 85 , 37 ,13, 20, W, None, None , ,  
04/26/2012 18:05, 41, 84 , 37 ,16, 18, W, None, None , ,  
04/26/2012 18:04, 41, 84 , 37 ,16, 18, W, None, None , ,  
04/26/2012 17:55, 41, 85 , 37 ,12, 15, W, None, None , ,  
04/26/2012 17:45, 41, 86 , 37 ,11, 13, NW, None, None , ,  
04/26/2012 17:35, 40, 87 , 37 ,11, 15, W, None, None , ,  
04/26/2012 17:25, 40, 88 , 37 ,11, 16, W, None, None , ,  
04/26/2012 17:15, 40, 88 , 37 ,13, 21, W, None, None , ,  
04/26/2012 17:05, 40, 89 , 38 ,17, 24, W, None, None , ,  
04/26/2012 17:03, 40, 88 , 37 ,18, 24, W, None, None , ,  
04/26/2012 16:55, 42, 88 , 39 ,16, 20, W, None, None , ,  
04/26/2012 16:45, 42, 85 , 38 ,11, 14, W, None, None , ,  
04/26/2012 16:35, 44, 79 , 38 ,10, 14, W, None, None , ,  
04/26/2012 16:33, 44, 78 , 37 ,11, 15, SW, None, None , ,  
04/26/2012 16:25, 44, 75 , 37 ,11, 19, SW, None, None , ,  
04/26/2012 16:15, 44, 73 , 37 ,11, 21, SW, None, None , ,  
04/26/2012 16:05, 45, 69 , 36 ,6, 21, S, None, None , ,  
04/26/2012 16:03, 46, 68 , 36 ,8, 21, S, None, None , ,  
04/26/2012 15:55, 47, 63 , 35 ,12, 22, S, None, None , ,  
04/26/2012 15:45, 48, 55 , 33 ,10, 26, S, None, None , ,  
04/26/2012 15:34, 52, 43 , 31 ,16, 29, S, None, None , ,  
04/26/2012 15:33, 52, 43 , 31 ,14, 32, S, None, None , ,  
04/26/2012 15:24, 53, 41 , 30 ,21, 32, SE, None, None , ,  
04/26/2012 15:14, 53, 42 , 31 ,21, 34, SE, None, None , ,  
04/26/2012 15:04, 54, 42 , 31 ,14, 24, SE, None, None , ,  
04/26/2012 15:03, 54, 42 , 32 ,14, 25, SE, None, None , ,  
04/26/2012 14:54, 55, 41 , 32 ,23, 36, S, None, None , ,  
04/26/2012 14:44, 55, 39 , 31 ,24, 34, S, None, None , ,  
04/26/2012 14:34, 55, 40 , 32 ,19, 29, S, None, None , ,  
04/26/2012 14:33, 55, 40 , 32 ,16, 29, S, None, None , ,  
04/26/2012 14:24, 55, 41 , 33 ,19, 31, SE, None, None , ,  
04/26/2012 14:14, 55, 43 , 33 ,22, 35, SE, None, None , ,  
04/26/2012 14:04, 55, 43 , 33 ,18, 30, SE, None, None , ,  
04/26/2012 14:01, 55, 43 , 34 ,24, 30, SE, None, None , ,  
04/26/2012 13:54, 56, 44 , 35 ,15, 28, SE, None, None , ,  
04/26/2012 13:44, 55, 44 , 34 ,20, 35, SE, None, None , ,  
04/26/2012 13:34, 55, 46 , 35 ,19, 30, SE, None, None , ,  
04/26/2012 13:33, 55, 46 , 34 ,18, 30, SE, None, None , ,  
04/26/2012 13:24, 53, 46 , 34 ,22, 34, SE, None, None , ,  
04/26/2012 13:14, 53, 50 , 35 ,19, 32, SE, None, None , ,  
04/26/2012 13:04, 52, 52 , 35 ,14, 24, SE, None, None , ,  
04/26/2012 13:03, 51, 51 , 34 ,14, 24, SE, None, None , ,  
04/26/2012 12:54, 52, 52 , 35 ,10, 22, SE, None, None , ,  
04/26/2012 12:44, 52, 54 , 36 ,19, 38, SE, None, None , ,  
04/26/2012 12:34, 52, 61 , 39 ,12, 19, SE, None, None , ,  
04/26/2012 12:33, 51, 61 , 39 ,12, 19, SE, None, None , ,  
04/26/2012 12:24, 53, 60 , 39 ,12, 20, SE, None, None , ,  
04/26/2012 12:14, 51, 61 , 38 ,15, 21, SE, None, None , ,  
04/26/2012 12:05, 51, 64 , 39 ,14, 25, E, None, None , ,  
04/26/2012 12:04, 50, 63 , 38 ,14, 25, SE, None, None , ,  
04/26/2012 11:54, 50, 66 , 39 ,16, 24, E, None, None , ,  
04/26/2012 11:44, 50, 68 , 40 ,19, 23, SE, None, None , ,  
04/26/2012 11:34, 49, 73 , 41 ,14, 21, E, None, None , ,  
04/26/2012 11:33, 50, 73 , 42 ,15, 21, E, None, None , ,  
04/26/2012 11:23, 49, 70 , 40 ,17, 22, E, None, None , ,  
04/26/2012 11:13, 48, 73 , 40 ,10, 16, SE, None, None , ,  
04/26/2012 11:03, 48, 73 , 40 ,7, 13, SE, None, None , ,  
04/26/2012 11:03, 49, 73 , 40 ,9, 13, SE, None, None , ,  
04/26/2012 10:53, 48, 73 , 40 ,7, 15, E, None, None , ,  
04/26/2012 10:43, 48, 77 , 41 ,8, 13, E, None, None , ,  
04/26/2012 10:33, 47, 83 , 43 ,9, 13, E, None, None , ,  
04/26/2012 10:31, 47, 83 , 42 ,9, 13, E, None, None , ,  
04/26/2012 10:23, 46, 81 , 41 ,11, 16, SE, None, None , ,  
04/26/2012 10:13, 49, 70 , 39 ,9, 14, E, None, None , ,  
04/26/2012 10:03, 48, 63 , 37 ,2, 6, N, None, None , ,  
04/26/2012 10:02, 48, 64 , 37 ,1, 6, W, None, None , ,  
04/26/2012 09:53, 48, 66 , 37 ,4, 5, SW, None, None , ,  
04/26/2012 09:43, 46, 71 , 38 ,2, 7, S, None, None , ,  
04/26/2012 09:33, 44, 83 , 39 ,7, 11, S, None, None , ,  
04/26/2012 09:33, 44, 83 , 39 ,7, 11, S, None, None , ,  
04/26/2012 09:23, 42, 89 , 39 ,11, 16, S, None, None , ,  
04/26/2012 09:13, 40, 90 , 38 ,9, 15, SW, None, None , ,  
04/26/2012 09:03, 40, 90 , 37 ,12, 20, W, None, None , ,  
04/26/2012 09:03, 40, 90 , 37 ,13, 20, W, None, None , ,  
04/26/2012 08:53, 41, 85 , 37 ,21, 27, W, None, None , ,  
04/26/2012 08:43, 44, 78 , 38 ,7, 16, SE, None, None , ,  
04/26/2012 08:33, 44, 79 , 38 ,13, 19, SE, None, None , ,  
04/26/2012 08:33, 44, 79 , 38 ,13, 19, SE, None, None , ,  
04/26/2012 08:23, 44, 81 , 39 ,17, 21, E, None, None , ,  
04/26/2012 08:13, 44, 83 , 39 ,13, 16, SE, None, None , ,  
04/26/2012 08:03, 44, 83 , 39 ,11, 12, E, None, None , ,  
04/26/2012 08:03, 44, 83 , 39 ,11, 12, E, None, None , ,  
04/26/2012 07:53, 44, 83 , 39 ,11, 13, SE, None, None , ,  
04/26/2012 07:43, 43, 84 , 38 ,9, 11, E, None, None , ,  
04/26/2012 07:33, 42, 82 , 38 ,10, 12, E, None, None , ,  
04/26/2012 07:32, 42, 82 , 38 ,10, 12, E, None, None , ,  
04/26/2012 07:22, 42, 82 , 37 ,10, 16, E, None, None , ,  
04/26/2012 07:12, 42, 82 , 37 ,11, 15, E, None, None , ,  
04/26/2012 07:02, 42, 83 , 37 ,9, 16, E, None, None , ,  
04/26/2012 07:02, 42, 83 , 37 ,9, 16, E, None, None , ,  
04/26/2012 06:52, 42, 83 , 37 ,11, 15, E, None, None , ,  
04/26/2012 06:42, 42, 81 , 37 ,12, 16, E, None, None , ,  
04/26/2012 06:33, 42, 81 , 37 ,12, 18, E, None, None , ,  
04/26/2012 06:32, 42, 81 , 37 ,12, 18, E, None, None , ,  
04/26/2012 06:22, 42, 83 , 37 ,13, 17, E, None, None , ,  
04/26/2012 06:12, 42, 84 , 38 ,14, 24, E, None, None , ,  
04/26/2012 06:03, 41, 86 , 38 ,11, 16, E, None, None , ,  
04/26/2012 06:02, 41, 86 , 38 ,11, 16, E, None, None , ,  
04/26/2012 05:52, 41, 86 , 37 ,12, 15, E, None, None , ,  
04/26/2012 05:42, 41, 86 , 37 ,14, 16, E, None, None , ,  
04/26/2012 05:33, 41, 86 , 37 ,12, 13, E, None, None , ,  
04/26/2012 05:32, 41, 86 , 37 ,12, 13, E, None, None , ,  
04/26/2012 05:22, 41, 85 , 37 ,9, 11, E, None, None , ,  
04/26/2012 05:12, 42, 83 , 37 ,9, 12, E, None, None , ,  
04/26/2012 05:02, 42, 84 , 38 ,7, 10, SE, None, None , ,  
04/26/2012 04:52, 42, 85 , 38 ,8, 12, E, None, None , ,  
04/26/2012 04:42, 41, 89 , 38 ,7, 7, SE, None, None , ,  
04/26/2012 04:32, 41, 89 , 38 ,4, 5, E, None, None , ,  
04/26/2012 04:03, 42, 85 , 38 ,1, 3, E, None, None , ,  
04/26/2012 04:02, 42, 85 , 38 ,1, 2, E, None, None , ,  
04/26/2012 03:52, 42, 84 , 38 ,2, 6, SE, None, None , ,  
04/26/2012 03:41, 43, 83 , 38 ,1, 9, E, None, None , ,  
04/26/2012 03:31, 43, 82 , 38 ,4, 11, NW, None, None , ,  
04/26/2012 03:21, 43, 83 , 38 ,9, 12, NW, None, None , ,  
04/26/2012 03:11, 43, 84 , 39 ,9, 12, NW, None, None , ,  
04/26/2012 03:03, 43, 87 , 39 ,11, 12, NW, None, None , ,  
04/26/2012 03:01, 43, 89 , 40 ,11, 12, NW, None, None , ,  
Change End Date:
Copyright © 1998-2005 Surface Systems, Inc.
All Rights Reserved
Send comments about the data to:
SCAN Web ® is a registered trademark of Surface Systems, Inc.
SCAN Web Version 5.6